Altadena, CA (91001)

7:24 AM PDT on May 05, 2015 (GMT -0700)
N. Mount Curve | | Change Station
CLOSE
Current Station
Personal Weather Station
Location: Altadena, CA
Elevation: 1556 ft
Nearby Weather Stations

Elev 1556 ft 34.20 °N, 118.13 °W | Updated 1 minute ago

Partly Cloudy
Partly Cloudy
52.6 °F
Feels Like 52.6 °F
N
0.0
Wind Variable Wind from ENE
Gusts 0.0 mph

Today
High -- | Low -- °F
--% Chance of Precip.
Yesterday
High -- | Low -- °F
Precip. -- in
5:59 AM 7:39 PM
Full, 98% visible
Pressure 29.99 in
Visibility 10.0 miles
Clouds Overcast 3200 ft
Dew Point 47 °F
Humidity 82%
Rainfall 0.00 in
Snow Depth Not available.
UV 0 out of 12
Pollen 5.60 out of 12
Air Quality Not available.
Flu Activity Sporadic
METAR KCQT 051347Z AUTO 14004KT 10SM OVC032 16/09 A2999 RMK AO2 SLP153 T01560094

More Conditions Fewer Conditions

Pressure 29.99 in
Visibility 10.0 miles
Clouds Overcast 3200 ft
Dew Point 47 °F
Humidity 82%
Rainfall 0.00 in
Snow Depth Not available.
UV 0 out of 12
Pollen 5.60 out of 12
Air Quality Not available.
Flu Activity Sporadic
METAR KCQT 051347Z AUTO 14004KT 10SM OVC032 16/09 A2999 RMK AO2 SLP153 T01560094

More Conditions Fewer Conditions

10-Day Weather Forecast

Almanac

Astronomy

May. 05, 2015 Rise Set
Actual Time
Civil Twilight
Nautical Twilight
Astronomical Twilight
Moon
Length of Visible Light
Length of Day
Tomorrow will be .
, % of the Moon is Illuminated

Today's Extremes

State Highs State Lows

Community

WunderPhotos

Upload Photos

1,818,903 photos uploaded!

WunderBlogs® & News

Nearby

Air Quality

  Air Quality AQ Index Pollutant
Not available.

Snow Depth

Station Depth Elevation

Earthquake Activity

City Distance Mag. Time & Date
Minimum magnitude displayed is 2.5.

Coastal Water Temperatures

Place Temperature

Stations

Nearby Weather Stations

Station Location Temp. Windchill Dew Point Humidity Wind Precip. Elev Updated Type